Regatta — V7DM3 — position and weather

sailwx.info

Track history (hours):
 
Tides and Currents Weather Stations Pressure Air Temp Water Temp Dewpoint Dewpoint Depression Visibility Wind Speed Wind Dir Waves Ship Positions

Regatta

Last reported at 2019-May-20 07:50 UTC. Time now 2019-May-20 17:20 UTC.
Position N 38°40' W 123°52'.

Length 180 m; draft 5.7 m.

Type: Passenger vessel. MMSI: 538001664.

Date/timePositionNaut miles runAvg speedWind from/ knotsBaromVisibWave heightAir tempDewpointWater temp
2019-May-20 07:50N 38°40' W 123°52'515.6
2019-May-20 07:30N 38°36' W 123°48'816.0
2019-May-20 07:00N 38°30' W 123°42'816.5
2019-May-20 06:30N 38°24' W 123°35'816.5
2019-May-20 06:00N 38°17' W 123°28'816.4
2019-May-20 05:30N 38°11' W 123°21'713.5
2019-May-20 05:01N 38°06' W 123°16'713.5
2019-May-20 04:30N 38°01' W 123°11'612.5
2019-May-20 04:00N 37°57' W 123°05'611.4
2019-May-20 03:30N 37°54' W 122°58'713.4
2019-May-20 03:00N 37°51' W 122°51'714.6
2019-May-20 02:30N 37°47' W 122°43'611.6
2019-May-20 02:00N 37°47' W 122°36'815.6
2019-May-20 01:30N 37°49' W 122°26'2 3.9
2019-May-20 00:58N 37°48' W 122°24'0 0.0
2019-May-20 00:28N 37°48' W 122°24'0 0.0
2019-May-19 23:58N 37°48' W 122°24'0 0.0
2019-May-19 23:28N 37°48' W 122°24'0 0.0
2019-May-19 22:58N 37°48' W 122°24'0 0.1
2019-May-19 22:28N 37°48' W 122°24'0 0.0
2019-May-19 21:58N 37°48' W 122°24'0 0.0
2019-May-19 21:28N 37°48' W 122°24'0 0.0
2019-May-19 20:58N 37°48' W 122°24'0 0.0
2019-May-19 20:28N 37°48' W 122°24'0 0.1
2019-May-19 19:58N 37°48' W 122°24'0 0.0
2019-May-19 19:28N 37°48' W 122°24'0 0.0
2019-May-19 18:58N 37°48' W 122°24'0 0.0
2019-May-19 18:28N 37°48' W 122°24'0 0.0
2019-May-19 17:58N 37°48' W 122°24'0 0.0
2019-May-19 17:28N 37°48' W 122°24'0 0.0
2019-May-19 16:58N 37°48' W 122°24'0 0.0
2019-May-19 16:28N 37°48' W 122°24'0 0.0
2019-May-19 15:58N 37°48' W 122°24'0 0.0
2019-May-19 15:28N 37°48' W 122°24'0 0.0
2019-May-19 14:58N 37°48' W 122°24'0 0.0
2019-May-19 14:28N 37°48' W 122°24'0 0.0
2019-May-19 13:58N 37°48' W 122°24'0 0.5
2019-May-19 13:30N 37°49' W 122°24'3 5.6
2019-May-19 13:00N 37°49' W 122°28'611.8
2019-May-19 12:31N 37°47' W 122°35'611.1
2019-May-19 12:00N 37°44' W 122°40'611.8
2019-May-19 11:30N 37°38' W 122°40'612.3
2019-May-19 11:00N 37°32' W 122°40'612.4
2019-May-19 10:30N 37°25' W 122°40'612.5
2019-May-19 10:00N 37°19' W 122°40'612.4
2019-May-19 09:30N 37°13' W 122°40'29514.1
2019-May-18 12:36N 33°07' W 119°21'416.6
2019-May-18 12:22N 33°08' W 119°16'2416.6
2019-May-18 10:56N 33°11' W 118°48'817.1
2019-May-18 10:28N 33°10' W 118°39'817.0
2019-May-18 09:59N 33°09' W 118°29'816.6
2019-May-18 09:30N 33°05' W 118°21'816.7
2019-May-18 09:00N 33°01' W 118°12'816.7
2019-May-18 08:30N 32°56' W 118°04'816.9
2019-May-18 08:00N 32°52' W 117°55'917.1
2019-May-18 07:30N 32°48' W 117°46'917.2
2019-May-18 07:00N 32°44' W 117°37'816.8
2019-May-18 06:31N 32°40' W 117°28'816.8
2019-May-18 06:01N 32°38' W 117°19'510.0
2019-May-18 05:30N 32°40' W 117°14'4 7.5
2019-May-18 05:00N 32°43' W 117°11'0 0.1
2019-May-18 01:11N 32°43' W 117°10'0 0.3
2019-May-18 00:59N 32°43' W 117°10'0 0.1
2019-May-18 00:23N 32°43' W 117°10'0 0.1
2019-May-17 23:53N 32°43' W 117°10'0 0.0
2019-May-17 21:35N 32°43' W 117°10'0 0.0
2019-May-17 20:41N 32°43' W 117°10'0 0.1
2019-May-17 20:13N 32°43' W 117°10'1 2.7
2019-May-17 20:01N 32°43' W 117°11'4 8.4
2019-May-17 19:30N 32°39' W 117°14'713.2
2019-May-17 19:00N 32°33' W 117°16'714.8
2019-May-17 18:30N 32°27' W 117°20'714.5
2019-May-17 18:00N 32°19' W 117°22'  
Track history (hours):
 
Tides and Currents Weather Stations Pressure Air Temp Water Temp Dewpoint Dewpoint Depression Visibility Wind Speed Wind Dir Waves Ship Positions

Regatta

Last reported at 2019-May-20 07:50 UTC. Time now 2019-May-20 17:20 UTC.
Position N 38°40' W 123°52'.

Length 180 m; draft 5.7 m.

Type: Passenger vessel. MMSI: 538001664.

Date/timePositionNaut miles runAvg speedWind from/ knotsBaromVisibWave heightAir tempDewpointWater temp
2019-May-20 07:50N 38°40' W 123°52'515.6
2019-May-20 07:30N 38°36' W 123°48'816.0
2019-May-20 07:00N 38°30' W 123°42'816.5
2019-May-20 06:30N 38°24' W 123°35'816.5
2019-May-20 06:00N 38°17' W 123°28'816.4
2019-May-20 05:30N 38°11' W 123°21'713.5
2019-May-20 05:01N 38°06' W 123°16'713.5
2019-May-20 04:30N 38°01' W 123°11'612.5
2019-May-20 04:00N 37°57' W 123°05'611.4
2019-May-20 03:30N 37°54' W 122°58'713.4
2019-May-20 03:00N 37°51' W 122°51'714.6
2019-May-20 02:30N 37°47' W 122°43'611.6
2019-May-20 02:00N 37°47' W 122°36'815.6
2019-May-20 01:30N 37°49' W 122°26'2 3.9
2019-May-20 00:58N 37°48' W 122°24'0 0.0
2019-May-20 00:28N 37°48' W 122°24'0 0.0
2019-May-19 23:58N 37°48' W 122°24'0 0.0
2019-May-19 23:28N 37°48' W 122°24'0 0.0
2019-May-19 22:58N 37°48' W 122°24'0 0.1
2019-May-19 22:28N 37°48' W 122°24'0 0.0
2019-May-19 21:58N 37°48' W 122°24'0 0.0
2019-May-19 21:28N 37°48' W 122°24'0 0.0
2019-May-19 20:58N 37°48' W 122°24'0 0.0
2019-May-19 20:28N 37°48' W 122°24'0 0.1
2019-May-19 19:58N 37°48' W 122°24'0 0.0
2019-May-19 19:28N 37°48' W 122°24'0 0.0
2019-May-19 18:58N 37°48' W 122°24'0 0.0
2019-May-19 18:28N 37°48' W 122°24'0 0.0
2019-May-19 17:58N 37°48' W 122°24'0 0.0
2019-May-19 17:28N 37°48' W 122°24'0 0.0
2019-May-19 16:58N 37°48' W 122°24'0 0.0
2019-May-19 16:28N 37°48' W 122°24'0 0.0
2019-May-19 15:58N 37°48' W 122°24'0 0.0
2019-May-19 15:28N 37°48' W 122°24'0 0.0
2019-May-19 14:58N 37°48' W 122°24'0 0.0
2019-May-19 14:28N 37°48' W 122°24'0 0.0
2019-May-19 13:58N 37°48' W 122°24'0 0.5
2019-May-19 13:30N 37°49' W 122°24'3 5.6
2019-May-19 13:00N 37°49' W 122°28'611.8
2019-May-19 12:31N 37°47' W 122°35'611.1
2019-May-19 12:00N 37°44' W 122°40'611.8
2019-May-19 11:30N 37°38' W 122°40'612.3
2019-May-19 11:00N 37°32' W 122°40'612.4
2019-May-19 10:30N 37°25' W 122°40'612.5
2019-May-19 10:00N 37°19' W 122°40'612.4
2019-May-19 09:30N 37°13' W 122°40'29514.1
2019-May-18 12:36N 33°07' W 119°21'416.6
2019-May-18 12:22N 33°08' W 119°16'2416.6
2019-May-18 10:56N 33°11' W 118°48'817.1
2019-May-18 10:28N 33°10' W 118°39'817.0
2019-May-18 09:59N 33°09' W 118°29'816.6
2019-May-18 09:30N 33°05' W 118°21'816.7
2019-May-18 09:00N 33°01' W 118°12'816.7
2019-May-18 08:30N 32°56' W 118°04'816.9
2019-May-18 08:00N 32°52' W 117°55'917.1
2019-May-18 07:30N 32°48' W 117°46'917.2
2019-May-18 07:00N 32°44' W 117°37'816.8
2019-May-18 06:31N 32°40' W 117°28'816.8
2019-May-18 06:01N 32°38' W 117°19'510.0
2019-May-18 05:30N 32°40' W 117°14'4 7.5
2019-May-18 05:00N 32°43' W 117°11'0 0.1
2019-May-18 01:11N 32°43' W 117°10'0 0.3
2019-May-18 00:59N 32°43' W 117°10'0 0.1
2019-May-18 00:23N 32°43' W 117°10'0 0.1
2019-May-17 23:53N 32°43' W 117°10'0 0.0
2019-May-17 21:35N 32°43' W 117°10'0 0.0
2019-May-17 20:41N 32°43' W 117°10'0 0.1
2019-May-17 20:13N 32°43' W 117°10'1 2.7
2019-May-17 20:01N 32°43' W 117°11'4 8.4
2019-May-17 19:30N 32°39' W 117°14'713.2
2019-May-17 19:00N 32°33' W 117°16'714.8
2019-May-17 18:30N 32°27' W 117°20'714.5
2019-May-17 18:00N 32°19' W 117°22'  

Dump ship's entire track history